createdAt,value
2019-05-07T00:03:17.382Z,7.10
2019-05-07T00:06:04.549Z,6.90
2019-05-07T00:08:45.002Z,6.80
2019-05-07T00:11:25.046Z,6.70
2019-05-07T00:14:04.981Z,6.60
2019-05-07T00:16:44.931Z,6.40
2019-05-07T00:19:25.068Z,6.60
2019-05-07T00:21:52.947Z,6.60
2019-05-07T00:27:33.025Z,6.50
2019-05-07T00:30:13.209Z,6.50
2019-05-07T00:32:53.196Z,6.60
2019-05-07T00:35:38.897Z,6.60
2019-05-07T00:38:22.412Z,6.70
2019-05-07T00:41:22.926Z,6.50
2019-05-07T00:44:04.477Z,6.60
2019-05-07T00:46:44.760Z,6.40
2019-05-07T00:49:26.398Z,6.50
2019-05-07T00:52:06.945Z,6.50
2019-05-07T00:54:49.257Z,6.50
2019-05-07T00:57:28.941Z,6.70
2019-05-07T01:00:09.374Z,6.50
2019-05-07T01:02:49.428Z,6.60
2019-05-07T01:05:29.793Z,6.40
2019-05-07T01:08:09.537Z,6.00
2019-05-07T01:10:49.682Z,6.20
2019-05-07T01:13:29.764Z,6.20
2019-05-07T01:16:09.665Z,6.10
2019-05-07T01:18:49.985Z,6.10
2019-05-07T01:21:32.265Z,6.10
2019-05-07T01:24:12.379Z,6.40
2019-05-07T01:26:53.045Z,6.20
2019-05-07T01:29:33.618Z,5.80
2019-05-07T01:32:33.133Z,5.80
2019-05-07T01:35:35.769Z,6.00
2019-05-07T01:38:17.662Z,5.90
2019-05-07T01:40:58.061Z,5.00
2019-05-07T01:43:38.235Z,5.80
2019-05-07T01:46:18.441Z,6.10
2019-05-07T01:48:58.531Z,5.80
2019-05-07T01:51:38.555Z,5.80
2019-05-07T01:54:18.765Z,5.90
2019-05-07T01:56:59.425Z,6.10
2019-05-07T01:59:39.438Z,5.70
2019-05-07T02:05:54.086Z,5.60
2019-05-07T02:08:56.186Z,5.30
2019-05-07T02:11:42.141Z,5.50
2019-05-07T02:20:33.093Z,5.50
2019-05-07T02:23:13.322Z,5.50
2019-05-07T02:25:53.560Z,5.40
2019-05-07T02:28:33.753Z,5.10
2019-05-07T02:31:14.918Z,5.40
2019-05-07T02:33:55.452Z,5.70
2019-05-07T02:36:36.708Z,5.40
2019-05-07T02:39:24.084Z,5.20
2019-05-07T02:42:05.247Z,5.50
2019-05-07T02:45:05.091Z,5.30
2019-05-07T02:47:44.657Z,5.20
2019-05-07T02:56:23.708Z,5.30
2019-05-07T03:01:58.858Z,5.70
2019-05-07T03:04:39.431Z,5.40
2019-05-07T03:07:19.024Z,5.50
2019-05-07T03:09:59.262Z,5.60
2019-05-07T03:12:39.279Z,5.30
2019-05-07T03:15:19.294Z,5.30
2019-05-07T03:18:03.041Z,5.20
2019-05-07T03:26:37.806Z,4.80
2019-05-07T03:29:20.197Z,4.90
2019-05-07T03:32:19.988Z,4.80
2019-05-07T03:37:55.543Z,4.70
2019-05-07T03:40:36.280Z,4.60
2019-05-07T03:43:17.874Z,4.70
2019-05-07T03:46:16.988Z,4.40
2019-05-07T03:48:56.734Z,4.60
2019-05-07T03:51:36.927Z,4.80
2019-05-07T03:54:16.830Z,4.80
2019-05-07T03:57:01.446Z,4.70
2019-05-07T03:59:39.336Z,4.50
2019-05-07T04:02:19.037Z,4.40
2019-05-07T04:04:58.917Z,4.40
2019-05-07T04:07:39.043Z,4.40
2019-05-07T04:10:19.119Z,4.30
2019-05-07T04:12:59.184Z,4.40
2019-05-07T04:15:39.479Z,4.20
2019-05-07T04:18:19.553Z,4.20
2019-05-07T04:20:59.482Z,4.40
2019-05-07T04:23:39.718Z,4.20
2019-05-07T04:29:16.441Z,4.40
2019-05-07T04:31:56.466Z,4.40
2019-05-07T04:34:55.683Z,4.30
2019-05-07T04:37:24.003Z,4.30
2019-05-07T04:42:54.005Z,4.20
2019-05-07T04:45:35.354Z,4.30
2019-05-07T04:48:15.786Z,4.50
2019-05-07T04:50:58.402Z,4.40
2019-05-07T04:53:38.298Z,4.60
2019-05-07T04:56:18.374Z,4.60
2019-05-07T04:58:58.520Z,4.60
2019-05-07T05:01:43.597Z,4.70
2019-05-07T05:04:30.109Z,4.80
2019-05-07T05:07:05.654Z,4.80
2019-05-07T05:09:47.924Z,4.80
2019-05-07T05:12:28.259Z,5.10
2019-05-07T05:15:08.206Z,5.20
2019-05-07T05:17:53.147Z,5.20
2019-05-07T05:20:19.701Z,5.20
2019-05-07T05:23:05.029Z,5.10
2019-05-07T05:25:35.477Z,5.10
2019-05-07T05:28:03.106Z,5.20
2019-05-07T05:30:56.032Z,5.30
2019-05-07T05:33:23.687Z,5.50
2019-05-07T05:35:52.542Z,5.60
2019-05-07T05:38:22.137Z,5.50
2019-05-07T05:40:51.878Z,5.50
2019-05-07T05:43:28.172Z,5.60
2019-05-07T05:45:57.445Z,5.70
2019-05-07T05:48:25.063Z,5.90
2019-05-07T05:51:27.213Z,6.20
2019-05-07T05:53:59.042Z,6.40
2019-05-07T05:56:35.510Z,6.50
2019-05-07T05:59:48.081Z,6.70
2019-05-07T06:02:23.541Z,6.80
2019-05-07T06:05:33.870Z,7.00
2019-05-07T06:11:27.257Z,7.50
2019-05-07T06:20:33.420Z,8.20
2019-05-07T06:26:13.621Z,9.10
2019-05-07T06:29:02.404Z,9.20
2019-05-07T06:31:44.802Z,9.10
2019-05-07T06:34:24.905Z,9.50
2019-05-07T06:37:05.402Z,10.00
2019-05-07T06:45:58.762Z,10.70
2019-05-07T06:48:43.600Z,10.60
2019-05-07T06:51:22.067Z,10.70
2019-05-07T06:54:02.914Z,10.80
2019-05-07T06:56:42.853Z,11.00
2019-05-07T07:05:46.763Z,11.90
2019-05-07T07:08:33.933Z,12.80
2019-05-07T07:11:33.022Z,12.60
2019-05-07T07:14:11.920Z,13.00
2019-05-07T07:16:58.956Z,13.20
2019-05-07T07:19:38.809Z,13.90
2019-05-07T07:22:06.459Z,14.00
2019-05-07T07:24:46.888Z,14.30
2019-05-07T07:27:14.546Z,14.50
2019-05-07T07:33:12.124Z,14.30
2019-05-07T07:35:39.841Z,14.70
2019-05-07T07:38:46.465Z,15.00
2019-05-07T07:41:38.809Z,15.20
2019-05-07T07:44:18.938Z,15.00
2019-05-07T07:46:58.766Z,15.00
2019-05-07T07:49:38.717Z,15.70
2019-05-07T07:52:18.812Z,15.50
2019-05-07T07:54:59.499Z,15.20
2019-05-07T07:57:58.916Z,15.00
2019-05-07T08:03:36.836Z,15.60
2019-05-07T08:06:17.099Z,15.40
2019-05-07T08:08:57.217Z,15.60
2019-05-07T08:11:37.394Z,15.40
2019-05-07T08:14:17.321Z,15.10
2019-05-07T08:16:57.796Z,14.90
2019-05-07T08:19:37.596Z,15.40
2019-05-07T08:22:25.305Z,14.80
2019-05-07T08:25:05.888Z,15.00
2019-05-07T08:27:46.019Z,14.90
2019-05-07T08:36:19.196Z,16.00
2019-05-07T08:38:59.023Z,15.90
2019-05-07T08:41:39.022Z,16.50
2019-05-07T08:44:22.298Z,17.60
2019-05-07T08:50:11.865Z,17.30
2019-05-07T08:52:52.173Z,17.20
2019-05-07T08:55:32.609Z,17.40
2019-05-07T08:58:12.738Z,17.80
2019-05-07T09:00:52.910Z,18.00
2019-05-07T09:03:52.338Z,18.30
2019-05-07T09:06:34.985Z,18.70
2019-05-07T09:09:15.401Z,18.90
2019-05-07T09:11:55.636Z,19.40
2019-05-07T09:14:35.742Z,19.50
2019-05-07T09:17:15.861Z,20.30
2019-05-07T09:19:50.598Z,20.40
2019-05-07T09:22:32.516Z,20.40
2019-05-07T09:25:13.050Z,20.30
2019-05-07T09:27:53.286Z,20.20
2019-05-07T09:30:55.270Z,20.50
2019-05-07T09:33:42.521Z,20.70
2019-05-07T09:36:28.482Z,21.00
2019-05-07T09:39:08.786Z,20.80
2019-05-07T09:41:48.978Z,21.10
2019-05-07T09:44:29.121Z,21.40
2019-05-07T09:47:09.453Z,21.50
2019-05-07T09:50:02.051Z,21.70
2019-05-07T09:52:32.155Z,22.00
2019-05-07T09:55:17.136Z,22.10
2019-05-07T09:57:42.588Z,22.10
2019-05-07T10:00:32.985Z,21.90
2019-05-07T10:03:13.163Z,22.00
2019-05-07T10:05:53.238Z,22.30
2019-05-07T10:08:33.236Z,22.20
2019-05-07T10:11:18.093Z,22.50
2019-05-07T10:14:02.321Z,22.80
2019-05-07T10:19:37.620Z,23.00
2019-05-07T10:22:06.332Z,23.10
2019-05-07T10:24:53.366Z,23.20
2019-05-07T10:27:33.866Z,23.30
2019-05-07T10:30:14.792Z,23.80
2019-05-07T10:32:55.004Z,23.40
2019-05-07T10:35:35.099Z,23.00
2019-05-07T10:38:15.141Z,22.90
2019-05-07T10:40:55.213Z,23.00
2019-05-07T10:43:34.998Z,22.80
2019-05-07T10:49:26.984Z,22.60
2019-05-07T10:52:07.517Z,22.50
2019-05-07T10:54:57.568Z,22.40
2019-05-07T10:57:29.789Z,22.30
2019-05-07T11:00:12.234Z,22.00
2019-05-07T11:02:51.910Z,21.90
2019-05-07T11:05:32.638Z,22.00
2019-05-07T11:08:13.078Z,22.00
2019-05-07T11:10:53.679Z,22.00
2019-05-07T11:13:33.278Z,22.10
2019-05-07T11:16:15.511Z,22.00
2019-05-07T11:18:55.759Z,22.10
2019-05-07T11:21:35.894Z,22.20
2019-05-07T11:24:16.095Z,22.10
2019-05-07T11:26:56.341Z,22.10
2019-05-07T11:29:36.734Z,22.50
2019-05-07T11:32:16.637Z,22.80
2019-05-07T11:34:56.678Z,22.80
2019-05-07T11:37:37.318Z,23.10
2019-05-07T11:40:19.911Z,22.80
2019-05-07T11:43:18.633Z,23.00
2019-05-07T11:54:44.617Z,22.30
2019-05-07T11:57:24.402Z,22.30
2019-05-07T12:00:05.086Z,22.30
2019-05-07T12:02:47.203Z,22.50
2019-05-07T12:05:26.983Z,22.90
2019-05-07T12:08:07.105Z,23.00
2019-05-07T12:10:47.022Z,23.50
2019-05-07T12:13:27.202Z,23.90
2019-05-07T12:16:07.351Z,23.80
2019-05-07T12:18:47.557Z,23.90
2019-05-07T12:21:27.489Z,24.20
2019-05-07T12:23:55.117Z,24.50
2019-05-07T12:26:22.697Z,24.60
2019-05-07T12:28:52.075Z,24.70
2019-05-07T12:31:45.186Z,24.80
2019-05-07T12:34:25.252Z,24.90
2019-05-07T12:36:52.853Z,25.10
2019-05-07T12:39:21.925Z,25.20
2019-05-07T12:42:09.098Z,25.20
2019-05-07T12:44:56.106Z,25.40
2019-05-07T12:47:36.742Z,25.40
2019-05-07T12:50:16.858Z,25.40
2019-05-07T12:55:57.529Z,25.60
2019-05-07T12:58:37.557Z,25.60
2019-05-07T13:04:18.565Z,25.50
2019-05-07T13:07:21.997Z,25.50
2019-05-07T13:10:03.604Z,25.70
2019-05-07T13:12:43.594Z,25.70
2019-05-07T13:18:23.273Z,25.90
2019-05-07T13:21:11.909Z,25.80
2019-05-07T13:23:52.509Z,25.70
2019-05-07T13:26:32.836Z,25.60
2019-05-07T13:29:13.282Z,25.40
2019-05-07T13:31:54.190Z,25.30
2019-05-07T13:34:34.853Z,25.30
2019-05-07T13:37:19.454Z,24.90
2019-05-07T13:40:04.114Z,24.60
2019-05-07T13:46:11.901Z,24.00
2019-05-07T13:48:51.953Z,23.40
2019-05-07T13:51:33.892Z,23.20
2019-05-07T13:54:14.106Z,22.90
2019-05-07T13:56:54.190Z,22.70
2019-05-07T13:59:34.353Z,22.40
2019-05-07T14:02:15.722Z,22.20
2019-05-07T14:04:43.921Z,21.70
2019-05-07T14:10:26.902Z,21.70
2019-05-07T14:13:14.071Z,21.20
2019-05-07T14:16:08.674Z,21.50
2019-05-07T14:18:48.682Z,21.10
2019-05-07T14:21:28.850Z,20.90
2019-05-07T14:24:08.934Z,20.60
2019-05-07T14:26:49.050Z,19.80
2019-05-07T14:29:29.265Z,19.60
2019-05-07T14:32:28.807Z,19.60
2019-05-07T14:35:28.223Z,19.50
2019-05-07T14:41:06.390Z,19.10
2019-05-07T14:44:09.179Z,19.10
2019-05-07T14:46:51.658Z,19.10
2019-05-07T14:49:31.792Z,19.10
2019-05-07T14:52:12.324Z,19.00
2019-05-07T14:54:52.831Z,19.10
2019-05-07T14:57:22.201Z,19.10
2019-05-07T15:00:12.030Z,19.20
2019-05-07T15:02:58.610Z,19.10
2019-05-07T15:05:26.245Z,19.20
2019-05-07T15:08:14.318Z,19.10
2019-05-07T15:11:02.830Z,19.20
2019-05-07T15:13:44.992Z,19.30
2019-05-07T15:16:25.735Z,19.30
2019-05-07T15:19:05.922Z,19.50
2019-05-07T15:21:45.773Z,19.70
2019-05-07T15:24:26.302Z,19.70
2019-05-07T15:27:06.417Z,19.60
2019-05-07T15:29:46.229Z,19.70
2019-05-07T15:32:14.171Z,19.90
2019-05-07T15:35:02.221Z,19.90
2019-05-07T15:37:42.888Z,20.00
2019-05-07T15:40:23.677Z,20.00
2019-05-07T15:43:04.134Z,20.10
2019-05-07T15:45:44.235Z,20.20
2019-05-07T15:48:24.381Z,20.10
2019-05-07T15:51:04.361Z,20.20
2019-05-07T15:53:52.237Z,20.20
2019-05-07T15:56:33.601Z,20.00
2019-05-07T15:59:22.313Z,20.00
2019-05-07T16:08:14.770Z,19.70
2019-05-07T16:10:54.289Z,19.40
2019-05-07T16:16:33.334Z,19.10
2019-05-07T16:19:32.208Z,18.90
2019-05-07T16:22:17.633Z,18.80
2019-05-07T16:24:57.766Z,18.50
2019-05-07T16:27:43.779Z,18.40
2019-05-07T16:30:24.094Z,18.30
2019-05-07T16:33:04.250Z,18.20
2019-05-07T16:35:45.675Z,18.10
2019-05-07T16:38:15.047Z,18.00
2019-05-07T16:41:02.304Z,17.90
2019-05-07T16:43:49.353Z,17.80
2019-05-07T16:46:28.959Z,17.80
2019-05-07T16:49:12.041Z,17.80
2019-05-07T16:51:52.750Z,17.70
2019-05-07T16:54:32.549Z,17.50
2019-05-07T17:00:31.742Z,17.40
2019-05-07T17:03:16.267Z,17.20
2019-05-07T17:05:56.098Z,17.20
2019-05-07T17:11:40.320Z,17.10
2019-05-07T17:14:20.361Z,16.80
2019-05-07T17:17:02.425Z,16.60
2019-05-07T17:19:42.646Z,16.60
2019-05-07T17:22:22.797Z,16.60
2019-05-07T17:25:22.808Z,16.50
2019-05-07T17:27:52.107Z,16.50
2019-05-07T17:30:32.579Z,16.40
2019-05-07T17:33:13.032Z,16.20
2019-05-07T17:35:52.737Z,16.20
2019-05-07T17:38:33.158Z,16.20
2019-05-07T17:41:20.250Z,16.20
2019-05-07T17:43:55.830Z,16.00
2019-05-07T17:46:36.073Z,16.00
2019-05-07T17:49:16.066Z,16.00
2019-05-07T17:51:57.127Z,16.00
2019-05-07T17:54:37.522Z,15.80
2019-05-07T17:57:17.833Z,15.90
2019-05-07T17:59:45.469Z,15.80
2019-05-07T18:02:51.942Z,15.70
2019-05-07T18:05:39.044Z,15.60
2019-05-07T18:08:18.994Z,15.40
2019-05-07T18:10:46.729Z,15.50
2019-05-07T18:13:33.757Z,15.50
2019-05-07T18:16:41.947Z,15.40
2019-05-07T18:19:22.293Z,15.40
2019-05-07T18:22:02.722Z,15.50
2019-05-07T18:24:42.581Z,15.30
2019-05-07T18:30:22.152Z,15.20
2019-05-07T18:33:22.711Z,15.10
2019-05-07T18:36:02.904Z,15.00
2019-05-07T18:38:43.597Z,14.90
2019-05-07T18:41:23.765Z,14.90
2019-05-07T18:44:12.182Z,14.40
2019-05-07T18:46:46.168Z,14.50
2019-05-07T18:49:26.230Z,14.40
2019-05-07T18:55:05.109Z,14.10
2019-05-07T18:57:45.766Z,13.90
2019-05-07T19:00:31.786Z,13.80
2019-05-07T19:03:12.646Z,13.70
2019-05-07T19:05:52.306Z,13.70
2019-05-07T19:08:35.331Z,13.60
2019-05-07T19:11:14.613Z,13.60
2019-05-07T19:16:53.650Z,13.40
2019-05-07T19:19:33.639Z,13.40
2019-05-07T19:22:14.086Z,13.20
2019-05-07T19:24:54.174Z,13.20
2019-05-07T19:27:34.199Z,13.00
2019-05-07T19:30:14.916Z,13.00
2019-05-07T19:32:55.182Z,12.90
2019-05-07T19:35:36.173Z,13.10
2019-05-07T19:38:16.413Z,12.90
2019-05-07T19:40:56.577Z,12.80
2019-05-07T19:43:36.510Z,12.80
2019-05-07T19:46:16.407Z,12.60
2019-05-07T19:48:56.549Z,12.80
2019-05-07T19:54:58.875Z,12.60
2019-05-07T19:57:37.635Z,12.60
2019-05-07T20:00:06.446Z,12.60
2019-05-07T20:05:55.796Z,12.40
2019-05-07T20:08:35.793Z,12.70
2019-05-07T20:11:35.426Z,12.50
2019-05-07T20:14:15.408Z,12.40
2019-05-07T20:16:58.307Z,12.40
2019-05-07T20:19:38.517Z,12.50
2019-05-07T20:22:18.521Z,12.10
2019-05-07T20:25:12.392Z,12.30
2019-05-07T20:27:41.828Z,12.30
2019-05-07T20:30:22.844Z,12.30
2019-05-07T20:33:03.188Z,12.30
2019-05-07T20:35:43.741Z,12.50
2019-05-07T20:38:24.421Z,12.30
2019-05-07T20:41:04.388Z,12.50
2019-05-07T20:43:44.593Z,12.40
2019-05-07T20:46:24.526Z,12.30
2019-05-07T20:49:05.713Z,12.40
2019-05-07T20:51:45.610Z,12.60
2019-05-07T20:54:32.684Z,12.50
2019-05-07T20:57:22.817Z,12.80
2019-05-07T21:00:02.958Z,12.70
2019-05-07T21:02:47.928Z,12.50
2019-05-07T21:05:25.106Z,12.80
2019-05-07T21:08:05.257Z,12.60
2019-05-07T21:10:45.400Z,12.30
2019-05-07T21:13:30.844Z,12.50
2019-05-07T21:16:07.537Z,12.50
2019-05-07T21:18:47.895Z,12.50
2019-05-07T21:21:27.748Z,12.40
2019-05-07T21:24:07.777Z,12.30
2019-05-07T21:26:47.858Z,12.30
2019-05-07T21:29:28.250Z,12.40
2019-05-07T21:32:08.217Z,12.30
2019-05-07T21:34:48.747Z,12.30
2019-05-07T21:37:28.554Z,12.20
2019-05-07T21:40:08.697Z,12.10
2019-05-07T21:42:48.703Z,12.00
2019-05-07T21:45:28.789Z,12.30
2019-05-07T21:48:09.061Z,12.10
2019-05-07T21:50:49.052Z,12.00
2019-05-07T21:53:34.558Z,11.90
2019-05-07T21:59:18.311Z,11.60
2019-05-07T22:02:02.180Z,11.40
2019-05-07T22:04:42.733Z,11.50
2019-05-07T22:07:22.837Z,11.60
2019-05-07T22:10:03.388Z,11.70
2019-05-07T22:12:43.374Z,11.30
2019-05-07T22:15:23.421Z,11.50
2019-05-07T22:18:03.687Z,11.50
2019-05-07T22:20:44.247Z,11.50
2019-05-07T22:23:24.935Z,11.70
2019-05-07T22:26:19.121Z,11.50
2019-05-07T22:28:47.036Z,11.40
2019-05-07T22:34:42.400Z,11.50
2019-05-07T22:37:22.250Z,11.40
2019-05-07T22:40:02.919Z,11.40
2019-05-07T22:42:42.901Z,11.60
2019-05-07T22:45:22.843Z,11.40
2019-05-07T22:48:02.915Z,11.50
2019-05-07T22:50:44.093Z,11.40
2019-05-07T22:53:24.133Z,11.50
2019-05-07T22:56:03.847Z,11.30
2019-05-07T22:58:50.171Z,11.20
2019-05-07T23:01:31.989Z,11.20
2019-05-07T23:04:12.276Z,11.30
2019-05-07T23:06:52.821Z,11.40
2019-05-07T23:09:33.341Z,11.30
2019-05-07T23:12:13.475Z,11.40
2019-05-07T23:14:53.834Z,11.30
2019-05-07T23:17:33.479Z,11.20
2019-05-07T23:20:13.590Z,11.10
2019-05-07T23:22:53.650Z,11.10
2019-05-07T23:25:33.786Z,11.20
2019-05-07T23:28:14.362Z,11.00
2019-05-07T23:30:54.386Z,10.90
2019-05-07T23:33:34.298Z,11.00
2019-05-07T23:36:14.282Z,11.00
2019-05-07T23:38:54.305Z,11.10
2019-05-07T23:44:47.621Z,10.90
2019-05-07T23:47:27.669Z,10.80
2019-05-07T23:50:07.590Z,10.80
2019-05-07T23:52:48.054Z,10.60
2019-05-07T23:55:28.016Z,10.70
2019-05-07T23:58:08.090Z,10.70
